Time;durP1;ratioP1;P1;durP2;ratioP2;P2;SDS_P1;SDS_P2;PMS_P1;PMS_P2;Temp;Humidity;BMP_temperature;BMP_pressure;BME280_temperature;BME280_humidity;BME280_pressure;Samples;Min_cycle;Max_cycle;Signal;HPM_P1;HPM_P2
2022/10/26 00:00:48;;;;;;;29.13;14.82;;;10.40;99.90;;;;;;4992085;28;20506;-85
2022/10/26 00:03:15;;;;;;;30.70;14.00;;;10.40;99.90;;;;;;4975909;28;20058;-85
2022/10/26 00:05:41;;;;;;;33.10;13.85;;;10.40;99.90;;;;;;4977157;28;20050;-83
2022/10/26 00:08:08;;;;;;;27.27;13.88;;;10.40;99.90;;;;;;4978550;28;20054;-86
2022/10/26 00:10:36;;;;;;;31.20;15.38;;;10.40;99.90;;;;;;4977545;28;20046;-89
2022/10/26 00:13:02;;;;;;;34.17;15.57;;;10.40;99.90;;;;;;4958624;28;20145;-84
2022/10/26 00:15:28;;;;;;;36.97;15.20;;;10.30;99.90;;;;;;4974498;28;20078;-87
2022/10/26 00:17:55;;;;;;;25.95;13.63;;;10.30;99.90;;;;;;4991714;28;20061;-85
2022/10/26 00:20:20;;;;;;;32.65;14.30;;;10.30;99.90;;;;;;4975550;28;20430;-84
2022/10/26 00:22:46;;;;;;;27.70;14.25;;;10.30;99.90;;;;;;4992524;28;20523;-84
2022/10/26 00:25:12;;;;;;;30.00;14.50;;;10.20;99.90;;;;;;4977812;28;20157;-84
2022/10/26 00:27:38;;;;;;;29.45;14.80;;;10.20;99.90;;;;;;4993186;28;20443;-83
2022/10/26 00:30:05;;;;;;;30.73;14.75;;;10.20;99.90;;;;;;4992217;28;20387;-88
2022/10/26 00:32:33;;;;;;;26.80;13.48;;;10.20;99.90;;;;;;4992194;28;20046;-84
2022/10/26 00:34:59;;;;;;;24.95;13.88;;;10.20;99.90;;;;;;4974460;28;20054;-85
2022/10/26 00:37:25;;;;;;;31.80;13.93;;;10.20;99.90;;;;;;4976945;28;20525;-84
2022/10/26 00:39:51;;;;;;;30.08;13.73;;;10.20;99.90;;;;;;4992123;28;20046;-83
2022/10/26 00:42:21;;;;;;;28.33;14.63;;;10.10;99.90;;;;;;4975088;28;20521;-86
2022/10/26 00:44:47;;;;;;;25.60;12.10;;;10.10;99.90;;;;;;4977170;28;20057;-85
2022/10/26 00:47:37;;;;;;;28.27;14.65;;;10.20;99.90;;;;;;4979839;28;20058;-85
2022/10/26 00:50:17;;;;;;;34.67;14.98;;;10.20;99.90;;;;;;4975572;28;20047;-84
2022/10/26 00:52:43;;;;;;;28.88;13.80;;;10.20;99.90;;;;;;4991679;28;20050;-87
2022/10/26 00:55:10;;;;;;;24.67;13.02;;;10.20;99.90;;;;;;4975127;28;20051;-84
2022/10/26 00:57:37;;;;;;;29.52;13.35;;;10.20;99.90;;;;;;4973927;28;20103;-85
2022/10/26 01:00:06;;;;;;;33.17;13.05;;;10.20;99.90;;;;;;4991567;28;20533;-92
2022/10/26 01:02:32;;;;;;;27.77;14.02;;;10.10;99.90;;;;;;4992229;28;20046;-83
2022/10/26 01:04:59;;;;;;;22.38;12.43;;;10.10;99.90;;;;;;4974899;28;20526;-83
2022/10/26 01:07:26;;;;;;;28.17;13.18;;;10.10;99.90;;;;;;4975539;28;20413;-87
2022/10/26 01:09:53;;;;;;;27.13;13.45;;;10.10;99.90;;;;;;4977156;28;20054;-89
2022/10/26 01:12:19;;;;;;;23.15;12.27;;;10.10;99.90;;;;;;4980946;28;20046;-86
2022/10/26 01:14:45;;;;;;;27.30;12.73;;;10.00;99.90;;;;;;5002448;28;20136;-88
2022/10/26 01:17:27;;;;;;;29.73;12.70;;;10.00;99.90;;;;;;4999526;28;20105;-83
2022/10/26 01:20:22;;;;;;;27.35;13.38;;;10.00;99.90;;;;;;4995286;28;20061;-83
2022/10/26 01:22:59;;;;;;;31.38;12.98;;;10.00;99.90;;;;;;4978685;28;20153;-83
2022/10/26 01:25:28;;;;;;;27.73;13.18;;;9.90;99.90;;;;;;4980338;28;20046;-84
2022/10/26 01:27:54;;;;;;;24.77;12.13;;;9.90;99.90;;;;;;5000143;28;20054;-84
2022/10/26 01:30:39;;;;;;;21.40;11.55;;;9.90;99.90;;;;;;4967259;28;20054;-87
2022/10/26 01:33:09;;;;;;;23.48;12.25;;;9.80;99.90;;;;;;4999336;28;20066;-83
2022/10/26 01:36:08;;;;;;;21.55;12.90;;;9.80;99.90;;;;;;5000135;28;20054;-83
2022/10/26 01:38:54;;;;;;;27.83;13.95;;;9.80;99.90;;;;;;4945437;28;20050;-83
2022/10/26 01:41:25;;;;;;;24.63;12.23;;;9.70;99.90;;;;;;4979650;28;20054;-83
2022/10/26 01:44:25;;;;;;;24.67;12.40;;;9.70;99.90;;;;;;4998829;28;20062;-86
2022/10/26 01:46:53;;;;;;;26.05;12.88;;;9.70;99.90;;;;;;4996443;28;20050;-85
2022/10/26 01:49:27;;;;;;;26.45;12.25;;;9.70;99.90;;;;;;4978674;28;20140;-85
2022/10/26 01:51:53;;;;;;;28.30;13.25;;;9.60;99.90;;;;;;4979679;28;20046;-85
2022/10/26 01:54:19;;;;;;;22.45;12.75;;;9.60;99.90;;;;;;4995015;28;20060;-84
2022/10/26 01:56:58;;;;;;;24.25;12.57;;;9.60;99.90;;;;;;4995728;28;20429;-84
2022/10/26 01:59:43;;;;;;;27.42;12.52;;;9.60;99.90;;;;;;4995711;28;20054;-83
2022/10/26 02:02:34;;;;;;;27.98;13.52;;;9.60;99.90;;;;;;4978717;28;20050;-84
2022/10/26 02:05:41;;;;;;;27.98;13.00;;;9.50;99.90;;;;;;4995113;28;20182;-85
2022/10/26 02:08:13;;;;;;;31.33;13.70;;;9.60;99.90;;;;;;4977293;28;20445;-85
2022/10/26 02:11:01;;;;;;;27.13;14.45;;;9.50;99.90;;;;;;4977194;28;20483;-89
2022/10/26 02:13:33;;;;;;;29.92;14.25;;;9.50;99.90;;;;;;4989821;28;20102;-86
2022/10/26 02:16:05;;;;;;;28.65;12.80;;;9.50;99.90;;;;;;4978107;28;20050;-84
2022/10/26 02:18:34;;;;;;;30.00;13.25;;;9.50;99.90;;;;;;4961033;28;20570;-84
2022/10/26 02:21:06;;;;;;;28.92;12.82;;;9.50;99.90;;;;;;4977377;28;20054;-83
2022/10/26 02:23:36;;;;;;;24.92;14.05;;;9.50;99.90;;;;;;4996287;28;20580;-85
2022/10/26 02:26:06;;;;;;;27.52;12.65;;;9.40;99.90;;;;;;4983614;28;20069;-84
2022/10/26 02:28:37;;;;;;;24.42;12.18;;;9.40;99.90;;;;;;4999837;28;20046;-88
2022/10/26 02:31:05;;;;;;;25.05;13.20;;;9.40;99.90;;;;;;4982610;28;20082;-84
2022/10/26 02:33:37;;;;;;;27.15;13.38;;;9.40;99.90;;;;;;4995533;28;20046;-83
2022/10/26 02:36:07;;;;;;;26.63;13.23;;;9.40;99.90;;;;;;4980059;28;20146;-90
2022/10/26 02:38:36;;;;;;;25.95;13.02;;;9.30;99.90;;;;;;4995006;28;20503;-84
2022/10/26 02:41:03;;;;;;;29.50;14.35;;;9.30;99.90;;;;;;4994523;28;20046;-85
2022/10/26 02:43:31;;;;;;;27.02;15.05;;;9.30;99.90;;;;;;4992873;28;20054;-85
2022/10/26 02:46:04;;;;;;;27.45;14.20;;;9.30;99.90;;;;;;4995132;28;20092;-86
2022/10/26 02:48:31;;;;;;;28.17;14.20;;;9.30;99.90;;;;;;4992233;28;20068;-84
2022/10/26 02:51:08;;;;;;;31.98;13.77;;;9.30;99.90;;;;;;4976039;28;20054;-85
2022/10/26 02:53:46;;;;;;;37.95;15.35;;;9.20;99.90;;;;;;4977309;28;20054;-85
2022/10/26 02:56:21;;;;;;;31.98;14.85;;;9.20;99.90;;;;;;4992284;28;20138;-83
2022/10/26 02:58:52;;;;;;;26.10;14.52;;;9.20;99.90;;;;;;4976016;28;20046;-84
2022/10/26 03:01:19;;;;;;;30.67;14.43;;;9.20;99.90;;;;;;4995158;28;20058;-84
2022/10/26 03:03:45;;;;;;;27.85;14.68;;;9.20;99.90;;;;;;4980023;28;20058;-87
2022/10/26 03:06:11;;;;;;;28.67;15.98;;;9.10;99.90;;;;;;4992171;28;20058;-83
2022/10/26 03:08:36;;;;;;;24.35;13.45;;;9.10;99.90;;;;;;4992486;28;20054;-83
2022/10/26 03:11:02;;;;;;;28.23;16.30;;;9.10;99.90;;;;;;4993811;28;20042;-84
2022/10/26 03:13:28;;;;;;;30.50;14.77;;;9.10;99.90;;;;;;4993861;28;20494;-85
2022/10/26 03:15:56;;;;;;;37.78;16.88;;;9.10;99.90;;;;;;4994671;28;20105;-90
2022/10/26 03:18:22;;;;;;;26.23;14.50;;;9.10;99.90;;;;;;4978816;28;20153;-84
2022/10/26 03:20:48;;;;;;;32.88;16.08;;;9.10;99.90;;;;;;4994483;28;20050;-84
2022/10/26 03:23:14;;;;;;;26.17;14.77;;;9.10;99.90;;;;;;4981579;28;20046;-83
2022/10/26 03:25:40;;;;;;;34.85;16.23;;;9.10;99.90;;;;;;4997092;28;20501;-87
2022/10/26 03:28:06;;;;;;;31.92;16.38;;;9.10;99.90;;;;;;4991242;28;20046;-85
2022/10/26 03:30:32;;;;;;;37.75;19.17;;;9.10;99.90;;;;;;4975286;28;20057;-85
2022/10/26 03:32:58;;;;;;;30.88;17.60;;;9.10;99.90;;;;;;4976409;28;20054;-84
2022/10/26 03:35:24;;;;;;;34.40;17.55;;;9.10;99.90;;;;;;4975625;28;20066;-85
2022/10/26 03:37:50;;;;;;;34.28;16.92;;;9.10;99.90;;;;;;4992578;28;20081;-87
2022/10/26 03:40:16;;;;;;;34.67;17.38;;;9.10;99.90;;;;;;4991611;28;20054;-89
2022/10/26 03:42:42;;;;;;;35.30;17.48;;;9.10;99.90;;;;;;4991682;28;20054;-83
2022/10/26 03:45:09;;;;;;;29.40;16.13;;;9.10;99.90;;;;;;4976528;28;20418;-84
2022/10/26 03:47:42;;;;;;;34.15;17.48;;;9.10;99.90;;;;;;4992720;28;20129;-89
2022/10/26 03:50:09;;;;;;;31.05;17.35;;;9.10;99.90;;;;;;4993498;28;20510;-88
2022/10/26 03:52:35;;;;;;;37.47;18.60;;;9.10;99.90;;;;;;4975361;28;20414;-84
2022/10/26 03:55:01;;;;;;;47.25;18.73;;;9.10;99.90;;;;;;4975156;28;20042;-83
2022/10/26 03:57:26;;;;;;;29.83;17.73;;;9.10;99.90;;;;;;4994363;28;20050;-86
2022/10/26 03:59:52;;;;;;;34.72;18.52;;;9.10;99.90;;;;;;4976726;28;20050;-85
2022/10/26 04:02:18;;;;;;;39.35;18.90;;;9.10;99.90;;;;;;4959041;28;20529;-84
2022/10/26 04:04:44;;;;;;;28.52;17.23;;;9.10;99.90;;;;;;4958211;28;20054;-83
2022/10/26 04:07:10;;;;;;;31.05;16.98;;;9.10;99.90;;;;;;4974952;28;20062;-84
2022/10/26 04:09:36;;;;;;;28.77;16.33;;;9.10;99.90;;;;;;4974822;28;20549;-84
2022/10/26 04:12:02;;;;;;;30.67;17.75;;;9.10;99.90;;;;;;4992229;28;20123;-85
2022/10/26 04:14:28;;;;;;;34.45;18.25;;;9.10;99.90;;;;;;4993534;28;20050;-90
2022/10/26 04:16:54;;;;;;;29.83;15.93;;;9.00;99.90;;;;;;4992577;28;20076;-85
2022/10/26 04:19:20;;;;;;;37.85;17.63;;;9.10;99.90;;;;;;4991754;28;20050;-84
2022/10/26 04:21:46;;;;;;;31.45;17.75;;;9.10;99.90;;;;;;4991445;28;20046;-85
2022/10/26 04:24:12;;;;;;;33.00;17.85;;;9.10;99.90;;;;;;4991803;28;20046;-84
2022/10/26 04:26:38;;;;;;;31.10;17.08;;;9.10;99.90;;;;;;4993832;28;20082;-86
2022/10/26 04:29:05;;;;;;;37.22;18.40;;;9.10;99.90;;;;;;4977605;28;20057;-82
2022/10/26 04:31:32;;;;;;;36.58;18.65;;;9.20;99.90;;;;;;4995508;28;20055;-92
2022/10/26 04:33:58;;;;;;;32.85;17.17;;;9.20;99.90;;;;;;4964931;28;20054;-89
2022/10/26 04:36:24;;;;;;;33.90;19.25;;;9.20;99.90;;;;;;4992060;28;20108;-90
2022/10/26 04:38:50;;;;;;;36.03;18.40;;;9.20;99.90;;;;;;4991877;28;20129;-90
2022/10/26 04:41:16;;;;;;;34.70;17.75;;;9.30;99.90;;;;;;4992308;28;20054;-89
2022/10/26 04:43:42;;;;;;;35.90;20.10;;;9.30;99.90;;;;;;4974186;28;20086;-89
2022/10/26 04:46:08;;;;;;;31.38;18.52;;;9.30;99.90;;;;;;4993878;28;20089;-86
2022/10/26 04:48:35;;;;;;;31.55;17.55;;;9.30;99.90;;;;;;4997259;28;20442;-83
2022/10/26 04:51:01;;;;;;;34.13;18.10;;;9.30;99.90;;;;;;4984525;28;20156;-88
2022/10/26 04:53:29;;;;;;;32.03;17.88;;;9.40;99.90;;;;;;5001879;28;20058;-92
2022/10/26 04:55:56;;;;;;;36.45;18.17;;;9.40;99.90;;;;;;4982579;28;20111;-84
2022/10/26 04:58:22;;;;;;;33.92;18.13;;;9.40;99.90;;;;;;4977688;28;20065;-83
2022/10/26 05:00:48;;;;;;;35.55;17.45;;;9.40;99.90;;;;;;4978126;28;20145;-83
2022/10/26 05:03:14;;;;;;;28.45;16.70;;;9.50;99.90;;;;;;4996058;28;20082;-86
2022/10/26 05:05:40;;;;;;;31.25;16.40;;;9.50;99.90;;;;;;4995593;28;20164;-84
2022/10/26 05:08:06;;;;;;;34.72;17.33;;;9.50;99.90;;;;;;4978519;28;20053;-83
2022/10/26 05:10:32;;;;;;;32.28;18.50;;;9.50;99.90;;;;;;4995719;28;20058;-83
2022/10/26 05:12:59;;;;;;;33.90;18.15;;;9.50;99.90;;;;;;4996940;28;20048;-84
2022/10/26 05:15:27;;;;;;;30.10;18.15;;;9.50;99.90;;;;;;5000616;28;20061;-84
2022/10/26 05:17:58;;;;;;;33.42;17.83;;;9.60;99.90;;;;;;4978586;28;20050;-88
2022/10/26 05:20:29;;;;;;;29.88;17.45;;;9.50;99.90;;;;;;4996046;28;20165;-84
2022/10/26 05:23:02;;;;;;;27.38;15.90;;;9.60;99.90;;;;;;4997488;28;20047;-90
2022/10/26 05:25:30;;;;;;;30.17;16.52;;;9.60;99.90;;;;;;4981671;28;20050;-89
2022/10/26 05:28:00;;;;;;;31.88;17.70;;;9.60;99.90;;;;;;4981647;28;20065;-87
2022/10/26 05:30:27;;;;;;;31.40;17.88;;;9.60;99.90;;;;;;4984481;28;20088;-83
2022/10/26 05:32:54;;;;;;;36.08;17.83;;;9.60;99.90;;;;;;4999809;28;20084;-91
2022/10/26 05:35:20;;;;;;;30.65;16.58;;;9.70;99.90;;;;;;4983558;28;20057;-86
2022/10/26 05:37:46;;;;;;;32.13;17.80;;;9.70;99.90;;;;;;4982856;28;20069;-88
2022/10/26 05:40:12;;;;;;;30.42;16.95;;;9.70;99.90;;;;;;4981429;28;20058;-88
2022/10/26 05:42:38;;;;;;;33.65;17.50;;;9.70;99.90;;;;;;4964334;28;20509;-84
2022/10/26 05:45:04;;;;;;;36.38;17.77;;;9.70;99.90;;;;;;4969736;28;20804;-89
2022/10/26 05:47:30;;;;;;;42.72;18.40;;;9.80;99.90;;;;;;4987371;28;20085;-87
2022/10/26 05:49:56;;;;;;;36.35;18.38;;;9.80;99.90;;;;;;5000674;28;20080;-83
2022/10/26 05:52:22;;;;;;;28.90;18.40;;;9.80;99.90;;;;;;4986406;28;20652;-84
2022/10/26 05:54:48;;;;;;;38.30;19.90;;;9.80;99.90;;;;;;4995441;28;20104;-87
2022/10/26 05:57:15;;;;;;;34.70;18.52;;;9.90;99.90;;;;;;4966983;28;20403;-88
2022/10/26 05:59:41;;;;;;;32.42;19.40;;;9.90;99.90;;;;;;4984061;28;20050;-84
2022/10/26 06:02:19;;;;;;;36.35;19.23;;;9.90;99.90;;;;;;4977437;28;20077;-86
2022/10/26 06:04:49;;;;;;;30.33;17.70;;;9.90;99.90;;;;;;4979075;28;20072;-91
2022/10/26 06:07:19;;;;;;;35.00;18.92;;;9.90;99.90;;;;;;5003153;28;20112;-86
2022/10/26 06:09:46;;;;;;;38.83;19.13;;;10.00;99.90;;;;;;4980024;28;20514;-85
2022/10/26 06:12:13;;;;;;;33.65;18.73;;;10.00;99.90;;;;;;4994023;28;20450;-86
2022/10/26 06:14:39;;;;;;;32.42;18.23;;;10.00;99.90;;;;;;4994438;28;20101;-81
2022/10/26 06:17:40;;;;;;;37.17;18.88;;;10.10;99.90;;;;;;4980427;28;20050;-89
2022/10/26 06:20:10;;;;;;;31.65;17.65;;;10.20;99.90;;;;;;4945608;28;20043;-93
2022/10/26 06:22:46;;;;;;;28.65;17.05;;;10.20;99.90;;;;;;4995437;28;20084;-85
2022/10/26 06:25:15;;;;;;;35.10;18.48;;;10.20;99.90;;;;;;4994616;28;20047;-87
2022/10/26 06:27:45;;;;;;;33.85;17.67;;;10.20;99.90;;;;;;4993959;28;20575;-85
2022/10/26 06:30:12;;;;;;;36.40;18.58;;;10.20;99.90;;;;;;4977108;28;20058;-87
2022/10/26 06:32:42;;;;;;;40.22;19.60;;;10.20;99.90;;;;;;4982547;28;20173;-86
2022/10/26 06:35:11;;;;;;;33.40;18.73;;;10.20;99.90;;;;;;4961512;28;20050;-88
2022/10/26 06:37:38;;;;;;;29.98;17.02;;;10.20;99.90;;;;;;4993760;28;20521;-92
2022/10/26 06:40:06;;;;;;;29.88;18.30;;;10.30;99.90;;;;;;4994124;28;20164;-88
2022/10/26 06:42:32;;;;;;;34.20;17.38;;;10.30;99.90;;;;;;4977358;28;20054;-92
2022/10/26 06:44:58;;;;;;;32.28;19.02;;;10.30;99.90;;;;;;4998772;28;20082;-84
2022/10/26 06:47:32;;;;;;;30.45;17.98;;;10.30;99.90;;;;;;5001144;28;20050;-84
2022/10/26 06:50:26;;;;;;;29.08;18.80;;;10.30;99.90;;;;;;4997991;28;20052;-87
2022/10/26 06:53:00;;;;;;;33.60;19.05;;;10.30;99.90;;;;;;4995666;28;20101;-86
2022/10/26 06:55:29;;;;;;;32.40;19.60;;;10.40;99.90;;;;;;4961269;28;20494;-86
2022/10/26 06:57:55;;;;;;;31.58;20.10;;;10.40;99.90;;;;;;4995020;28;20391;-85
2022/10/26 07:00:26;;;;;;;34.05;17.92;;;10.40;99.90;;;;;;4996076;28;20061;-84
2022/10/26 07:02:52;;;;;;;30.83;17.33;;;10.40;99.90;;;;;;4978139;28;20050;-88
2022/10/26 07:05:18;;;;;;;27.67;15.73;;;10.40;99.90;;;;;;4977367;28;20513;-86
2022/10/26 07:07:46;;;;;;;27.90;15.65;;;10.50;99.90;;;;;;4998890;28;20170;-85
2022/10/26 07:10:13;;;;;;;29.73;16.40;;;10.60;99.90;;;;;;4996082;28;20077;-84
2022/10/26 07:12:39;;;;;;;28.67;17.27;;;10.60;99.90;;;;;;4996522;28;20058;-86
2022/10/26 07:15:07;;;;;;;26.63;16.85;;;10.60;99.90;;;;;;4976918;28;20083;-85
2022/10/26 07:17:47;;;;;;;29.02;15.95;;;10.70;99.90;;;;;;4977677;28;20062;-86
2022/10/26 07:20:14;;;;;;;28.15;16.10;;;10.70;99.90;;;;;;4994329;28;20054;-91
2022/10/26 07:22:41;;;;;;;27.23;16.08;;;10.70;99.90;;;;;;4980476;28;20050;-86
2022/10/26 07:25:08;;;;;;;30.92;17.73;;;10.80;99.90;;;;;;4978404;28;20061;-86
2022/10/26 07:27:34;;;;;;;31.10;15.82;;;10.80;99.90;;;;;;4969561;28;20050;-85
2022/10/26 07:30:01;;;;;;;26.35;15.20;;;10.80;99.90;;;;;;4991447;28;20062;-87
2022/10/26 07:32:26;;;;;;;26.88;14.75;;;10.90;99.90;;;;;;5003563;28;20132;-90
2022/10/26 07:34:52;;;;;;;23.63;14.00;;;11.00;99.90;;;;;;4980786;28;20617;-83
2022/10/26 07:37:18;;;;;;;25.95;15.35;;;11.00;99.90;;;;;;4997711;28;20054;-84
2022/10/26 07:39:44;;;;;;;25.10;14.85;;;11.00;99.90;;;;;;4999407;28;20042;-82
2022/10/26 07:42:10;;;;;;;30.10;15.05;;;11.10;99.90;;;;;;4996156;28;20383;-84
2022/10/26 07:44:36;;;;;;;23.30;13.60;;;11.20;99.90;;;;;;4991527;28;20573;-85
2022/10/26 07:47:02;;;;;;;25.75;13.80;;;11.20;99.90;;;;;;4993465;28;20057;-84
2022/10/26 07:49:28;;;;;;;28.85;14.07;;;11.30;99.90;;;;;;4976130;28;20057;-86
2022/10/26 07:51:54;;;;;;;22.92;12.93;;;11.30;99.90;;;;;;4993392;28;20046;-86
2022/10/26 07:54:20;;;;;;;23.02;13.45;;;11.40;99.90;;;;;;4994266;28;20046;-90
2022/10/26 07:56:48;;;;;;;26.38;12.57;;;11.40;99.90;;;;;;4967680;28;20066;-85
2022/10/26 07:59:16;;;;;;;21.85;13.70;;;11.50;99.90;;;;;;4994333;28;20109;-84
2022/10/26 08:01:42;;;;;;;23.27;12.52;;;11.50;99.90;;;;;;4961759;28;20082;-87
2022/10/26 08:04:08;;;;;;;28.55;13.93;;;11.60;99.90;;;;;;4999159;28;20054;-86
2022/10/26 08:06:34;;;;;;;23.58;12.70;;;11.60;99.90;;;;;;5002897;28;20051;-90
2022/10/26 08:09:00;;;;;;;19.52;12.43;;;11.70;99.90;;;;;;4980583;28;20057;-94
2022/10/26 08:11:26;;;;;;;27.60;12.93;;;11.70;99.90;;;;;;4999681;28;20410;-90
2022/10/26 08:13:53;;;;;;;20.17;12.25;;;11.80;99.90;;;;;;4999076;28;20161;-88
2022/10/26 08:16:19;;;;;;;18.17;11.70;;;11.90;99.90;;;;;;5001242;28;20058;-84
2022/10/26 08:18:47;;;;;;;21.33;11.32;;;11.90;99.90;;;;;;5010470;28;20069;-82
2022/10/26 08:21:13;;;;;;;20.05;10.60;;;12.00;99.90;;;;;;5014349;28;20065;-89
2022/10/26 08:23:39;;;;;;;21.13;10.73;;;12.10;99.90;;;;;;5014680;28;20047;-91
2022/10/26 08:26:06;;;;;;;18.40;10.07;;;12.10;99.90;;;;;;4983044;28;20050;-85
2022/10/26 08:28:32;;;;;;;19.40;11.23;;;12.20;99.90;;;;;;5005680;28;20050;-84
2022/10/26 08:30:59;;;;;;;18.85;10.27;;;12.30;99.90;;;;;;4980487;28;20057;-85
2022/10/26 08:33:25;;;;;;;19.90;9.75;;;12.40;99.90;;;;;;4995825;28;20101;-83
2022/10/26 08:35:59;;;;;;;21.50;9.80;;;12.40;99.90;;;;;;4994366;28;20046;-90
2022/10/26 08:38:25;;;;;;;16.88;9.30;;;12.50;99.90;;;;;;4993493;28;20066;-87
2022/10/26 08:40:52;;;;;;;19.92;9.60;;;12.60;99.90;;;;;;4978862;28;20057;-93
2022/10/26 08:43:22;;;;;;;18.80;10.18;;;12.70;99.90;;;;;;4993345;28;20056;-87
2022/10/26 08:45:54;;;;;;;18.88;9.63;;;12.70;99.90;;;;;;4995773;28;20043;-85
2022/10/26 08:48:25;;;;;;;16.15;9.25;;;12.80;99.90;;;;;;4994926;28;20065;-86
2022/10/26 08:50:59;;;;;;;14.88;9.70;;;12.80;99.90;;;;;;4979898;28;20050;-82
2022/10/26 08:53:37;;;;;;;16.25;8.95;;;12.80;99.90;;;;;;4995785;28;20106;-83
2022/10/26 08:56:18;;;;;;;15.35;8.05;;;12.90;99.90;;;;;;4994009;28;20081;-87
2022/10/26 08:59:10;;;;;;;17.95;8.13;;;12.90;99.90;;;;;;4991830;28;20054;-82
2022/10/26 09:01:36;;;;;;;18.83;9.27;;;13.00;99.90;;;;;;4994041;28;20133;-83
2022/10/26 09:04:10;;;;;;;14.85;8.30;;;13.10;99.90;;;;;;4978276;28;20081;-83
2022/10/26 09:06:56;;;;;;;14.55;7.93;;;13.10;99.90;;;;;;4996762;28;20057;-85
2022/10/26 09:09:41;;;;;;;12.45;7.07;;;13.20;99.90;;;;;;4980286;28;20113;-86
2022/10/26 09:12:43;;;;;;;16.35;7.50;;;13.30;99.90;;;;;;4994295;28;20053;-87
2022/10/26 09:15:43;;;;;;;16.25;7.28;;;13.40;99.90;;;;;;4975339;28;20050;-91
2022/10/26 09:18:12;;;;;;;24.73;8.07;;;13.50;99.90;;;;;;4992202;28;20054;-84
2022/10/26 09:20:47;;;;;;;15.43;7.53;;;13.60;99.90;;;;;;4992591;28;20043;-84
2022/10/26 09:23:16;;;;;;;12.18;7.32;;;13.70;99.90;;;;;;4975435;28;20506;-86
2022/10/26 09:25:45;;;;;;;13.27;7.88;;;13.80;99.90;;;;;;4993086;28;20061;-83
2022/10/26 09:28:17;;;;;;;15.05;7.10;;;13.90;99.90;;;;;;4978282;28;20043;-84
2022/10/26 09:30:45;;;;;;;18.75;7.25;;;13.90;99.90;;;;;;4995124;28;20086;-82
2022/10/26 09:33:23;;;;;;;11.88;7.15;;;14.00;99.90;;;;;;4981996;28;20077;-90
2022/10/26 09:36:01;;;;;;;9.82;5.53;;;14.10;99.90;;;;;;4995054;28;20786;-83
2022/10/26 09:38:39;;;;;;;9.48;5.70;;;14.20;99.90;;;;;;4994925;28;20086;-82
2022/10/26 09:41:28;;;;;;;9.23;5.43;;;14.40;99.90;;;;;;4978479;28;20058;-83
2022/10/26 09:43:57;;;;;;;10.32;5.05;;;14.50;99.90;;;;;;4996629;28;20421;-85
2022/10/26 09:46:48;;;;;;;11.38;4.90;;;14.70;99.90;;;;;;4978568;28;20185;-89
2022/10/26 09:49:17;;;;;;;10.40;4.93;;;14.80;99.90;;;;;;4976368;28;20130;-82
2022/10/26 09:51:45;;;;;;;9.25;4.70;;;14.90;99.90;;;;;;4975322;28;20116;-84
2022/10/26 09:54:16;;;;;;;8.70;4.53;;;15.00;99.90;;;;;;4958595;28;20059;-83
2022/10/26 09:56:50;;;;;;;9.60;4.50;;;15.00;99.90;;;;;;4976563;28;20487;-83
2022/10/26 09:59:19;;;;;;;8.13;4.85;;;15.10;99.90;;;;;;4973925;28;20050;-86
2022/10/26 10:01:45;;;;;;;9.32;5.13;;;15.20;99.90;;;;;;4975817;28;20134;-84
2022/10/26 10:04:19;;;;;;;14.10;5.25;;;15.20;99.90;;;;;;4974344;28;20073;-82
2022/10/26 10:06:47;;;;;;;8.20;4.27;;;15.30;99.90;;;;;;4990358;28;20149;-85
2022/10/26 10:09:23;;;;;;;7.80;4.30;;;15.40;99.90;;;;;;4978859;28;20059;-84
2022/10/26 10:12:01;;;;;;;11.38;4.55;;;15.40;99.90;;;;;;4974672;28;20129;-85
2022/10/26 10:14:31;;;;;;;12.30;4.18;;;15.60;99.90;;;;;;4976393;28;20066;-85
2022/10/26 10:17:03;;;;;;;7.95;4.35;;;15.70;99.90;;;;;;4974563;28;20054;-82
2022/10/26 10:19:31;;;;;;;9.63;4.63;;;15.80;99.90;;;;;;4975071;28;20057;-86
2022/10/26 10:22:15;;;;;;;8.05;3.97;;;16.00;99.90;;;;;;4975147;28;20051;-88
2022/10/26 10:24:51;;;;;;;9.25;4.35;;;16.20;99.90;;;;;;4974699;28;20503;-89
2022/10/26 10:27:18;;;;;;;14.00;3.65;;;16.30;99.90;;;;;;4975658;28;20054;-88
2022/10/26 10:29:55;;;;;;;9.30;3.38;;;16.30;99.90;;;;;;4991354;28;20112;-83
2022/10/26 10:32:31;;;;;;;8.20;3.58;;;16.30;99.90;;;;;;4976152;28;20054;-83
2022/10/26 10:35:01;;;;;;;6.00;3.00;;;16.30;99.90;;;;;;4973326;28;20058;-81
2022/10/26 10:37:42;;;;;;;9.25;2.67;;;16.20;99.90;;;;;;4977350;28;20054;-83
2022/10/26 10:40:21;;;;;;;8.50;3.17;;;16.10;99.90;;;;;;4977598;28;20050;-85
2022/10/26 10:42:50;;;;;;;7.47;3.47;;;16.20;99.90;;;;;;4973074;28;20058;-85
2022/10/26 10:45:28;;;;;;;8.82;3.17;;;16.30;99.90;;;;;;4984157;28;20062;-86
2022/10/26 10:47:58;;;;;;;8.05;3.35;;;16.40;99.90;;;;;;4998778;28;20061;-85
2022/10/26 10:50:24;;;;;;;11.43;3.33;;;16.40;99.90;;;;;;4964199;28;20055;-84
2022/10/26 10:52:51;;;;;;;7.55;3.28;;;16.50;99.90;;;;;;4993749;28;20058;-87
2022/10/26 10:55:20;;;;;;;8.10;3.53;;;16.50;99.90;;;;;;4993170;28;20050;-83
2022/10/26 10:57:56;;;;;;;10.00;3.40;;;16.70;99.90;;;;;;4992680;28;20054;-89
2022/10/26 11:00:24;;;;;;;11.40;3.47;;;16.90;99.90;;;;;;4993030;28;20054;-83
2022/10/26 11:03:13;;;;;;;8.88;2.90;;;17.00;99.90;;;;;;4993115;28;20141;-87
2022/10/26 11:05:58;;;;;;;8.50;3.05;;;17.30;99.90;;;;;;4993412;28;20137;-84
2022/10/26 11:08:41;;;;;;;;;;;17.50;99.90;;;;;;4993856;28;20061;-84
2022/10/26 11:11:10;;;;;;;10.57;3.80;;;17.90;99.90;;;;;;4992972;28;19921;-90
2022/10/26 11:14:15;;;;;;;9.57;3.53;;;18.00;99.90;;;;;;4978357;28;20129;-89
2022/10/26 11:16:50;;;;;;;10.38;3.25;;;18.00;99.90;;;;;;4913544;29;20060;-82
2022/10/26 11:19:16;;;;;;;8.43;3.10;;;18.10;99.90;;;;;;4913493;29;20416;-89
2022/10/26 11:21:47;;;;;;;5.93;2.80;;;18.20;99.90;;;;;;4955645;28;20050;-84
2022/10/26 11:24:31;;;;;;;10.98;3.42;;;18.40;99.90;;;;;;4991452;28;20077;-90
2022/10/26 11:27:24;;;;;;;6.27;3.03;;;18.50;99.90;;;;;;4975724;28;20104;-88
2022/10/26 11:30:08;;;;;;;7.50;3.17;;;19.00;99.90;;;;;;4995043;28;20046;-82
2022/10/26 11:33:02;;;;;;;7.78;2.83;;;19.90;99.90;;;;;;4975462;28;20050;-81
2022/10/26 11:35:53;;;;;;;6.07;2.83;;;21.00;99.90;;;;;;4993517;28;20491;-86
2022/10/26 11:38:48;;;;;;;10.10;2.88;;;21.60;99.90;;;;;;4990566;28;20529;-82
2022/10/26 11:41:22;;;;;;;12.40;3.17;;;22.20;99.90;;;;;;4992419;28;20050;-82
2022/10/26 11:43:53;;;;;;;6.87;2.30;;;23.00;99.90;;;;;;4991431;28;20050;-85
2022/10/26 11:46:37;;;;;;;7.85;2.67;;;23.50;99.90;;;;;;4975056;28;20046;-86
2022/10/26 11:49:28;;;;;;;6.80;2.53;;;23.80;99.90;;;;;;4991773;28;20512;-81
2022/10/26 11:52:21;;;;;;;11.48;2.58;;;24.10;98.60;;;;;;4993705;28;20073;-86
2022/10/26 11:54:59;;;;;;;9.43;2.30;;;24.50;98.50;;;;;;4993510;28;20403;-83
2022/10/26 11:57:27;;;;;;;5.85;2.17;;;24.80;97.90;;;;;;4991837;28;20058;-88
2022/10/26 12:00:01;;;;;;;9.30;2.00;;;24.60;97.20;;;;;;4974852;28;20046;-90
2022/10/26 12:02:27;;;;;;;8.18;2.50;;;24.50;96.80;;;;;;4992096;28;20062;-89
2022/10/26 12:05:04;;;;;;;5.68;2.28;;;24.60;96.90;;;;;;4991839;28;20054;-83
2022/10/26 12:07:35;;;;;;;7.95;3.17;;;25.00;97.00;;;;;;4974436;28;20069;-89
2022/10/26 12:10:02;;;;;;;7.32;2.30;;;24.50;95.80;;;;;;4991013;28;20058;-83
2022/10/26 12:12:43;;;;;;;10.07;3.38;;;24.40;97.00;;;;;;4993325;28;20050;-87
2022/10/26 12:15:47;;;;;;;9.27;2.70;;;24.60;97.00;;;;;;4990856;28;20053;-84
2022/10/26 12:18:25;;;;;;;5.13;2.53;;;24.40;96.90;;;;;;4988053;28;20054;-82
2022/10/26 12:21:01;;;;;;;7.65;2.70;;;24.80;96.60;;;;;;4992152;28;20399;-84
2022/10/26 12:23:58;;;;;;;6.82;2.75;;;25.30;95.70;;;;;;4992415;28;20437;-81
2022/10/26 12:26:27;;;;;;;11.02;4.57;;;24.40;95.30;;;;;;4943507;28;20573;-83
2022/10/26 12:29:01;;;;;;;9.75;3.40;;;23.10;97.40;;;;;;4974670;28;20089;-86
2022/10/26 12:31:36;;;;;;;8.60;3.00;;;22.50;99.20;;;;;;4991881;28;20121;-84
2022/10/26 12:34:13;;;;;;;8.13;3.45;;;21.90;99.90;;;;;;4974110;28;20043;-83
2022/10/26 12:37:10;;;;;;;7.53;2.85;;;21.20;99.90;;;;;;4993628;28;20065;-84
2022/10/26 12:39:37;;;;;;;7.43;3.08;;;20.50;99.90;;;;;;4995942;28;20090;-86
2022/10/26 12:42:28;;;;;;;12.98;3.90;;;20.00;99.90;;;;;;4992758;28;20129;-82
2022/10/26 12:44:57;;;;;;;8.85;3.60;;;19.80;99.90;;;;;;4974236;28;20131;-86
2022/10/26 12:47:29;;;;;;;13.50;3.72;;;19.60;99.90;;;;;;4975197;28;20061;-84
2022/10/26 12:50:22;;;;;;;7.65;3.38;;;19.80;99.90;;;;;;4994139;28;20055;-85
2022/10/26 12:52:56;;;;;;;10.60;3.95;;;20.60;99.90;;;;;;4991412;28;20081;-82
2022/10/26 12:55:41;;;;;;;7.35;4.35;;;21.60;99.90;;;;;;4991940;28;20062;-84
2022/10/26 12:58:27;;;;;;;10.30;4.30;;;21.80;99.90;;;;;;4973870;28;20558;-82